sensor_id;sensor_type;location;lat;lon;timestamp;pressure;altitude;pressure_sealevel;temperature;humidity
58698;BME280;44475;53.206;-6.106;2023-04-10T00:00:22;100494.16;;;23.54;43.52
58698;BME280;44475;53.206;-6.106;2023-04-10T00:02:48;100504.09;;;23.55;43.38
58698;BME280;44475;53.206;-6.106;2023-04-10T00:05:14;100520.38;;;23.56;43.65
58698;BME280;44475;53.206;-6.106;2023-04-10T00:07:41;100508.56;;;23.56;43.40
58698;BME280;44475;53.206;-6.106;2023-04-10T00:10:07;100511.72;;;23.51;43.74
58698;BME280;44475;53.206;-6.106;2023-04-10T00:12:35;100502.38;;;23.44;43.70
58698;BME280;44475;53.206;-6.106;2023-04-10T00:15:03;100502.94;;;23.47;43.75
58698;BME280;44475;53.206;-6.106;2023-04-10T00:17:29;100501.50;;;23.53;43.72
58698;BME280;44475;53.206;-6.106;2023-04-10T00:19:55;100502.25;;;23.45;43.89
58698;BME280;44475;53.206;-6.106;2023-04-10T00:22:24;100502.78;;;23.59;43.27
58698;BME280;44475;53.206;-6.106;2023-04-10T00:24:50;100504.25;;;23.63;43.40
58698;BME280;44475;53.206;-6.106;2023-04-10T00:27:17;100495.03;;;23.54;43.21
58698;BME280;44475;53.206;-6.106;2023-04-10T00:29:43;100496.19;;;23.52;43.53
58698;BME280;44475;53.206;-6.106;2023-04-10T00:32:09;100492.88;;;23.48;43.67
58698;BME280;44475;53.206;-6.106;2023-04-10T00:34:36;100503.81;;;23.38;43.94
58698;BME280;44475;53.206;-6.106;2023-04-10T00:37:02;100498.06;;;23.41;43.81
58698;BME280;44475;53.206;-6.106;2023-04-10T00:39:28;100490.72;;;23.52;43.36
58698;BME280;44475;53.206;-6.106;2023-04-10T00:41:54;100494.03;;;23.45;43.47
58698;BME280;44475;53.206;-6.106;2023-04-10T00:44:22;100500.22;;;23.47;43.32
58698;BME280;44475;53.206;-6.106;2023-04-10T00:46:48;100490.59;;;23.33;43.88
58698;BME280;44475;53.206;-6.106;2023-04-10T00:49:15;100492.47;;;23.43;43.69
58698;BME280;44475;53.206;-6.106;2023-04-10T00:51:43;100490.72;;;23.42;43.32
58698;BME280;44475;53.206;-6.106;2023-04-10T00:54:10;100487.56;;;23.46;43.46
58698;BME280;44475;53.206;-6.106;2023-04-10T00:56:37;100476.78;;;23.45;43.52
58698;BME280;44475;53.206;-6.106;2023-04-10T00:59:04;100483.97;;;23.46;43.39
58698;BME280;44475;53.206;-6.106;2023-04-10T01:01:30;100477.91;;;23.52;43.30
58698;BME280;44475;53.206;-6.106;2023-04-10T01:03:57;100490.31;;;23.46;43.15
58698;BME280;44475;53.206;-6.106;2023-04-10T01:11:53;100476.19;;;23.41;43.57
58698;BME280;44475;53.206;-6.106;2023-04-10T01:15:32;100468.84;;;23.52;43.17
58698;BME280;44475;53.206;-6.106;2023-04-10T01:20:22;100462.97;;;23.46;43.19
58698;BME280;44475;53.206;-6.106;2023-04-10T01:30:52;100446.25;;;23.39;43.61
58698;BME280;44475;53.206;-6.106;2023-04-10T01:33:23;100444.97;;;23.44;43.19
58698;BME280;44475;53.206;-6.106;2023-04-10T01:35:53;100441.97;;;23.27;43.38
58698;BME280;44475;53.206;-6.106;2023-04-10T01:38:23;100418.06;;;23.39;43.14
58698;BME280;44475;53.206;-6.106;2023-04-10T01:40:53;100438.22;;;23.38;43.37
58698;BME280;44475;53.206;-6.106;2023-04-10T01:43:28;100440.78;;;23.39;43.33
58698;BME280;44475;53.206;-6.106;2023-04-10T01:45:57;100439.06;;;23.38;43.46
58698;BME280;44475;53.206;-6.106;2023-04-10T01:48:25;100435.19;;;23.41;43.20
58698;BME280;44475;53.206;-6.106;2023-04-10T01:50:52;100434.47;;;23.39;43.04
58698;BME280;44475;53.206;-6.106;2023-04-10T01:53:19;100429.88;;;23.39;43.42
58698;BME280;44475;53.206;-6.106;2023-04-10T01:55:47;100427.28;;;23.38;43.31
58698;BME280;44475;53.206;-6.106;2023-04-10T01:58:14;100432.63;;;23.29;43.17
58698;BME280;44475;53.206;-6.106;2023-04-10T02:00:42;100440.06;;;23.37;43.38
58698;BME280;44475;53.206;-6.106;2023-04-10T02:03:10;100419.50;;;23.43;43.07
58698;BME280;44475;53.206;-6.106;2023-04-10T02:08:41;100413.28;;;23.51;42.77
58698;BME280;44475;53.206;-6.106;2023-04-10T02:11:15;100414.47;;;23.38;43.13
58698;BME280;44475;53.206;-6.106;2023-04-10T02:13:45;100415.44;;;23.47;42.64
58698;BME280;44475;53.206;-6.106;2023-04-10T02:16:17;100408.28;;;23.46;42.79
58698;BME280;44475;53.206;-6.106;2023-04-10T02:18:45;100413.16;;;23.43;43.13
58698;BME280;44475;53.206;-6.106;2023-04-10T02:21:12;100408.44;;;23.35;43.12
58698;BME280;44475;53.206;-6.106;2023-04-10T02:23:40;100411.00;;;23.36;43.24
58698;BME280;44475;53.206;-6.106;2023-04-10T02:26:08;100409.16;;;23.27;43.44
58698;BME280;44475;53.206;-6.106;2023-04-10T02:28:37;100397.31;;;23.56;42.57
58698;BME280;44475;53.206;-6.106;2023-04-10T02:31:06;100393.06;;;23.34;43.20
58698;BME280;44475;53.206;-6.106;2023-04-10T02:33:32;100389.47;;;23.33;43.08
58698;BME280;44475;53.206;-6.106;2023-04-10T02:36:00;100386.25;;;23.38;42.94
58698;BME280;44475;53.206;-6.106;2023-04-10T02:38:28;100385.84;;;23.43;42.66
58698;BME280;44475;53.206;-6.106;2023-04-10T02:40:54;100387.25;;;23.47;42.80
58698;BME280;44475;53.206;-6.106;2023-04-10T02:43:21;100396.91;;;23.41;43.02
58698;BME280;44475;53.206;-6.106;2023-04-10T02:45:47;100397.19;;;23.38;42.83
58698;BME280;44475;53.206;-6.106;2023-04-10T02:48:20;100396.38;;;23.27;42.92
58698;BME280;44475;53.206;-6.106;2023-04-10T02:50:58;100396.19;;;23.39;42.79
58698;BME280;44475;53.206;-6.106;2023-04-10T02:53:26;100383.66;;;23.46;42.76
58698;BME280;44475;53.206;-6.106;2023-04-10T02:55:56;100386.41;;;23.36;42.84
58698;BME280;44475;53.206;-6.106;2023-04-10T02:58:22;100392.91;;;23.35;42.71
58698;BME280;44475;53.206;-6.106;2023-04-10T03:00:52;100391.72;;;23.38;42.78
58698;BME280;44475;53.206;-6.106;2023-04-10T03:03:37;100395.47;;;23.37;42.66
58698;BME280;44475;53.206;-6.106;2023-04-10T03:06:03;100392.94;;;23.15;43.47
58698;BME280;44475;53.206;-6.106;2023-04-10T03:08:32;100383.13;;;23.33;42.86
58698;BME280;44475;53.206;-6.106;2023-04-10T03:10:58;100383.41;;;23.29;43.07
58698;BME280;44475;53.206;-6.106;2023-04-10T03:13:25;100392.75;;;23.27;42.79
58698;BME280;44475;53.206;-6.106;2023-04-10T03:15:51;100388.31;;;23.26;43.24
58698;BME280;44475;53.206;-6.106;2023-04-10T03:18:18;100391.03;;;23.26;42.77
58698;BME280;44475;53.206;-6.106;2023-04-10T03:20:47;100389.88;;;23.28;42.92
58698;BME280;44475;53.206;-6.106;2023-04-10T03:23:13;100382.69;;;23.27;43.11
58698;BME280;44475;53.206;-6.106;2023-04-10T03:25:40;100388.00;;;23.39;42.68
58698;BME280;44475;53.206;-6.106;2023-04-10T03:28:08;100390.47;;;23.32;42.69
58698;BME280;44475;53.206;-6.106;2023-04-10T03:30:34;100383.66;;;23.36;42.66
58698;BME280;44475;53.206;-6.106;2023-04-10T03:33:02;100382.69;;;23.27;42.84
58698;BME280;44475;53.206;-6.106;2023-04-10T03:35:29;100379.38;;;23.34;42.77
58698;BME280;44475;53.206;-6.106;2023-04-10T03:37:55;100372.19;;;23.33;42.69
58698;BME280;44475;53.206;-6.106;2023-04-10T03:40:22;100378.97;;;23.28;43.03
58698;BME280;44475;53.206;-6.106;2023-04-10T03:42:48;100381.25;;;23.33;42.82
58698;BME280;44475;53.206;-6.106;2023-04-10T03:45:15;100374.63;;;23.26;43.03
58698;BME280;44475;53.206;-6.106;2023-04-10T03:47:41;100376.50;;;23.35;42.79
58698;BME280;44475;53.206;-6.106;2023-04-10T03:50:09;100371.44;;;23.41;42.68
58698;BME280;44475;53.206;-6.106;2023-04-10T03:52:58;100369.88;;;23.38;42.55
58698;BME280;44475;53.206;-6.106;2023-04-10T03:55:25;100367.13;;;23.38;42.60
58698;BME280;44475;53.206;-6.106;2023-04-10T03:57:51;100363.00;;;23.34;42.44
58698;BME280;44475;53.206;-6.106;2023-04-10T04:00:22;100355.28;;;23.47;42.37
58698;BME280;44475;53.206;-6.106;2023-04-10T04:02:55;100361.66;;;23.38;42.44
58698;BME280;44475;53.206;-6.106;2023-04-10T04:05:57;100356.81;;;23.32;42.71
58698;BME280;44475;53.206;-6.106;2023-04-10T04:08:43;100348.38;;;23.15;43.16
58698;BME280;44475;53.206;-6.106;2023-04-10T04:11:21;100354.69;;;23.25;42.85
58698;BME280;44475;53.206;-6.106;2023-04-10T04:13:59;100351.38;;;23.22;42.99
58698;BME280;44475;53.206;-6.106;2023-04-10T04:16:48;100349.91;;;23.27;42.82
58698;BME280;44475;53.206;-6.106;2023-04-10T04:19:26;100350.50;;;23.21;43.01
58698;BME280;44475;53.206;-6.106;2023-04-10T04:22:22;100346.31;;;23.17;43.03
58698;BME280;44475;53.206;-6.106;2023-04-10T04:25:08;100348.16;;;23.26;42.68
58698;BME280;44475;53.206;-6.106;2023-04-10T04:27:54;100346.63;;;23.24;43.04
58698;BME280;44475;53.206;-6.106;2023-04-10T04:30:43;100334.28;;;23.09;43.02
58698;BME280;44475;53.206;-6.106;2023-04-10T04:33:19;100341.25;;;23.32;42.64
58698;BME280;44475;53.206;-6.106;2023-04-10T04:36:01;100330.03;;;23.35;42.69
58698;BME280;44475;53.206;-6.106;2023-04-10T04:38:38;100339.31;;;23.14;43.03
58698;BME280;44475;53.206;-6.106;2023-04-10T04:41:11;100343.31;;;23.20;42.81
58698;BME280;44475;53.206;-6.106;2023-04-10T04:43:41;100344.31;;;23.19;42.79
58698;BME280;44475;53.206;-6.106;2023-04-10T04:46:23;100335.09;;;23.20;42.82
58698;BME280;44475;53.206;-6.106;2023-04-10T04:49:09;100335.75;;;23.04;43.05
58698;BME280;44475;53.206;-6.106;2023-04-10T04:51:56;100334.53;;;23.16;43.15
58698;BME280;44475;53.206;-6.106;2023-04-10T04:54:35;100325.19;;;23.19;42.96
58698;BME280;44475;53.206;-6.106;2023-04-10T04:57:20;100322.78;;;23.06;43.32
58698;BME280;44475;53.206;-6.106;2023-04-10T05:00:06;100312.16;;;23.03;43.16
58698;BME280;44475;53.206;-6.106;2023-04-10T05:02:51;100306.81;;;23.11;42.97
58698;BME280;44475;53.206;-6.106;2023-04-10T05:05:32;100298.28;;;23.24;42.74
58698;BME280;44475;53.206;-6.106;2023-04-10T05:08:10;100291.63;;;23.27;42.85
58698;BME280;44475;53.206;-6.106;2023-04-10T05:11:05;100291.50;;;23.28;42.42
58698;BME280;44475;53.206;-6.106;2023-04-10T05:13:40;100290.69;;;23.08;43.33
58698;BME280;44475;53.206;-6.106;2023-04-10T05:16:21;100298.19;;;23.06;43.22
58698;BME280;44475;53.206;-6.106;2023-04-10T05:19:11;100304.06;;;23.11;42.83
58698;BME280;44475;53.206;-6.106;2023-04-10T05:21:49;100312.38;;;23.19;42.80
58698;BME280;44475;53.206;-6.106;2023-04-10T05:24:30;100305.47;;;23.15;43.11
58698;BME280;44475;53.206;-6.106;2023-04-10T05:27:13;100311.47;;;23.29;42.83
58698;BME280;44475;53.206;-6.106;2023-04-10T05:29:57;100304.81;;;23.03;43.09
58698;BME280;44475;53.206;-6.106;2023-04-10T05:32:42;100305.41;;;22.97;43.04
58698;BME280;44475;53.206;-6.106;2023-04-10T05:35:21;100324.47;;;23.17;43.19
58698;BME280;44475;53.206;-6.106;2023-04-10T05:37:57;100318.75;;;23.10;43.06
58698;BME280;44475;53.206;-6.106;2023-04-10T05:40:44;100318.88;;;23.08;43.19
58698;BME280;44475;53.206;-6.106;2023-04-10T05:43:36;100320.31;;;23.13;43.25
58698;BME280;44475;53.206;-6.106;2023-04-10T05:46:28;100312.53;;;23.18;42.85
58698;BME280;44475;53.206;-6.106;2023-04-10T05:49:21;100319.28;;;23.24;42.66
58698;BME280;44475;53.206;-6.106;2023-04-10T05:52:20;100318.63;;;23.02;43.37
58698;BME280;44475;53.206;-6.106;2023-04-10T05:55:05;100321.88;;;23.15;43.02
58698;BME280;44475;53.206;-6.106;2023-04-10T05:57:32;100316.41;;;23.15;42.77
58698;BME280;44475;53.206;-6.106;2023-04-10T06:00:19;100320.31;;;23.13;42.84
58698;BME280;44475;53.206;-6.106;2023-04-10T06:03:24;100310.56;;;23.00;43.13
58698;BME280;44475;53.206;-6.106;2023-04-10T06:05:56;100320.84;;;23.26;42.57
58698;BME280;44475;53.206;-6.106;2023-04-10T06:08:24;100320.47;;;23.11;42.78
58698;BME280;44475;53.206;-6.106;2023-04-10T06:10:51;100312.28;;;23.11;42.78
58698;BME280;44475;53.206;-6.106;2023-04-10T06:13:17;100319.03;;;23.07;43.21
58698;BME280;44475;53.206;-6.106;2023-04-10T06:15:44;100316.41;;;23.15;42.67
58698;BME280;44475;53.206;-6.106;2023-04-10T06:18:10;100308.53;;;23.12;42.96
58698;BME280;44475;53.206;-6.106;2023-04-10T06:20:36;100302.59;;;23.17;42.67
58698;BME280;44475;53.206;-6.106;2023-04-10T06:23:03;100308.81;;;23.09;42.68
58698;BME280;44475;53.206;-6.106;2023-04-10T06:25:30;100318.31;;;23.05;43.13
58698;BME280;44475;53.206;-6.106;2023-04-10T06:27:58;100317.59;;;23.13;42.86
58698;BME280;44475;53.206;-6.106;2023-04-10T06:30:24;100310.81;;;23.17;43.01
58698;BME280;44475;53.206;-6.106;2023-04-10T06:32:51;100312.97;;;23.23;42.37
58698;BME280;44475;53.206;-6.106;2023-04-10T06:35:19;100312.88;;;22.95;43.27
58698;BME280;44475;53.206;-6.106;2023-04-10T06:37:46;100302.50;;;23.08;43.01
58698;BME280;44475;53.206;-6.106;2023-04-10T06:40:14;100305.94;;;23.11;42.81
58698;BME280;44475;53.206;-6.106;2023-04-10T06:42:41;100310.22;;;23.23;42.31
58698;BME280;44475;53.206;-6.106;2023-04-10T06:45:26;100310.81;;;23.17;42.71
58698;BME280;44475;53.206;-6.106;2023-04-10T06:47:53;100314.44;;;23.07;43.05
58698;BME280;44475;53.206;-6.106;2023-04-10T06:50:19;100311.13;;;23.14;42.93
58698;BME280;44475;53.206;-6.106;2023-04-10T06:52:46;100300.69;;;23.27;42.54
58698;BME280;44475;53.206;-6.106;2023-04-10T06:55:13;100307.25;;;23.06;43.08
58698;BME280;44475;53.206;-6.106;2023-04-10T06:57:39;100301.59;;;23.18;42.71
58698;BME280;44475;53.206;-6.106;2023-04-10T07:00:06;100301.63;;;23.08;43.09
58698;BME280;44475;53.206;-6.106;2023-04-10T07:02:32;100304.22;;;23.09;43.06
58698;BME280;44475;53.206;-6.106;2023-04-10T07:04:59;100292.69;;;23.16;42.61
58698;BME280;44475;53.206;-6.106;2023-04-10T07:07:25;100291.56;;;23.08;42.86
58698;BME280;44475;53.206;-6.106;2023-04-10T07:09:51;100291.41;;;23.10;42.88
58698;BME280;44475;53.206;-6.106;2023-04-10T07:12:18;100299.50;;;23.02;42.96
58698;BME280;44475;53.206;-6.106;2023-04-10T07:14:44;100297.88;;;23.09;42.96
58698;BME280;44475;53.206;-6.106;2023-04-10T07:17:10;100296.06;;;22.99;43.22
58698;BME280;44475;53.206;-6.106;2023-04-10T07:19:36;100296.06;;;22.99;43.11
58698;BME280;44475;53.206;-6.106;2023-04-10T07:22:03;100298.31;;;23.14;42.85
58698;BME280;44475;53.206;-6.106;2023-04-10T07:24:30;100305.94;;;23.11;42.96
58698;BME280;44475;53.206;-6.106;2023-04-10T07:26:57;100301.31;;;23.21;42.73
58698;BME280;44475;53.206;-6.106;2023-04-10T07:29:25;100307.97;;;23.08;42.83
58698;BME280;44475;53.206;-6.106;2023-04-10T07:31:52;100309.41;;;23.13;42.74
58698;BME280;44475;53.206;-6.106;2023-04-10T07:34:18;100317.03;;;23.09;42.96
58698;BME280;44475;53.206;-6.106;2023-04-10T07:36:45;100324.06;;;23.12;43.01
58698;BME280;44475;53.206;-6.106;2023-04-10T07:39:12;100317.03;;;23.09;42.93
58698;BME280;44475;53.206;-6.106;2023-04-10T07:41:38;100317.63;;;23.03;43.21
58698;BME280;44475;53.206;-6.106;2023-04-10T07:44:05;100318.56;;;23.22;42.75
58698;BME280;44475;53.206;-6.106;2023-04-10T07:46:31;100317.84;;;23.19;42.62
58698;BME280;44475;53.206;-6.106;2023-04-10T07:48:58;100321.19;;;23.13;42.97
58698;BME280;44475;53.206;-6.106;2023-04-10T07:51:24;100314.28;;;23.09;42.69
58698;BME280;44475;53.206;-6.106;2023-04-10T07:53:51;100309.81;;;23.08;42.94
58698;BME280;44475;53.206;-6.106;2023-04-10T07:56:18;100300.41;;;23.31;42.58
58698;BME280;44475;53.206;-6.106;2023-04-10T07:58:45;100302.41;;;23.28;42.40
58698;BME280;44475;53.206;-6.106;2023-04-10T08:01:12;100294.06;;;23.30;42.48
58698;BME280;44475;53.206;-6.106;2023-04-10T08:03:40;100302.31;;;23.20;42.40
58698;BME280;44475;53.206;-6.106;2023-04-10T08:06:07;100299.31;;;23.13;42.60
58698;BME280;44475;53.206;-6.106;2023-04-10T08:08:38;100303.34;;;23.09;42.71
58698;BME280;44475;53.206;-6.106;2023-04-10T08:11:26;100298.00;;;23.17;42.79
58698;BME280;44475;53.206;-6.106;2023-04-10T08:13:54;100298.16;;;23.16;42.70
58698;BME280;44475;53.206;-6.106;2023-04-10T08:16:25;100294.56;;;23.15;42.59
58698;BME280;44475;53.206;-6.106;2023-04-10T08:18:53;100297.88;;;23.09;42.85
58698;BME280;44475;53.206;-6.106;2023-04-10T08:21:21;100290.25;;;23.13;42.74
58698;BME280;44475;53.206;-6.106;2023-04-10T08:23:49;100292.38;;;23.19;42.49
58698;BME280;44475;53.206;-6.106;2023-04-10T08:26:16;100285.81;;;23.12;42.72
58698;BME280;44475;53.206;-6.106;2023-04-10T08:28:43;100303.34;;;23.09;42.73
58698;BME280;44475;53.206;-6.106;2023-04-10T08:31:13;100294.56;;;23.15;42.55
58698;BME280;44475;53.206;-6.106;2023-04-10T08:33:39;100285.53;;;23.15;42.63
58698;BME280;44475;53.206;-6.106;2023-04-10T08:36:09;100291.13;;;23.13;42.72
58698;BME280;44475;53.206;-6.106;2023-04-10T08:38:38;100292.44;;;23.09;42.88
58698;BME280;44475;53.206;-6.106;2023-04-10T08:41:05;100294.28;;;23.08;42.64
58698;BME280;44475;53.206;-6.106;2023-04-10T08:43:31;100290.53;;;23.19;42.69
58698;BME280;44475;53.206;-6.106;2023-04-10T08:46:00;100292.28;;;23.11;42.91
58698;BME280;44475;53.206;-6.106;2023-04-10T08:49:14;100287.81;;;23.09;42.89
58698;BME280;44475;53.206;-6.106;2023-04-10T08:51:21;100280.38;;;23.02;42.96
58698;BME280;44475;53.206;-6.106;2023-04-10T08:53:50;100276.19;;;23.07;43.09
58698;BME280;44475;53.206;-6.106;2023-04-10T08:56:19;100275.91;;;23.01;42.79
58698;BME280;44475;53.206;-6.106;2023-04-10T08:58:45;100274.44;;;23.06;42.79
58698;BME280;44475;53.206;-6.106;2023-04-10T09:01:12;100271.19;;;23.03;43.02
58698;BME280;44475;53.206;-6.106;2023-04-10T09:03:38;100278.75;;;23.09;42.87
58698;BME280;44475;53.206;-6.106;2023-04-10T09:06:05;100271.13;;;23.13;42.62
58698;BME280;44475;53.206;-6.106;2023-04-10T09:08:32;100274.16;;;23.09;43.00
58698;BME280;44475;53.206;-6.106;2023-04-10T09:10:59;100269.75;;;22.98;43.27
58698;BME280;44475;53.206;-6.106;2023-04-10T09:13:38;100269.13;;;23.05;42.98
58698;BME280;44475;53.206;-6.106;2023-04-10T09:16:06;100264.91;;;23.21;42.29
58698;BME280;44475;53.206;-6.106;2023-04-10T09:18:49;100259.31;;;23.22;41.81
58698;BME280;44475;53.206;-6.106;2023-04-10T09:21:18;100267.50;;;23.22;41.48
58698;BME280;44475;53.206;-6.106;2023-04-10T09:23:47;100263.66;;;23.05;41.72
58698;BME280;44475;53.206;-6.106;2023-04-10T09:26:30;100259.19;;;23.14;40.89
58698;BME280;44475;53.206;-6.106;2023-04-10T09:29:06;100255.28;;;23.16;41.07
58698;BME280;44475;53.206;-6.106;2023-04-10T09:31:34;100249.78;;;23.26;40.54
58698;BME280;44475;53.206;-6.106;2023-04-10T09:34:12;100258.25;;;23.33;40.24
58698;BME280;44475;53.206;-6.106;2023-04-10T09:36:43;100247.25;;;23.43;39.51
58698;BME280;44475;53.206;-6.106;2023-04-10T09:39:11;100252.16;;;23.39;39.34
58698;BME280;44475;53.206;-6.106;2023-04-10T09:41:52;100257.63;;;23.39;39.04
58698;BME280;44475;53.206;-6.106;2023-04-10T09:44:37;100256.31;;;23.44;38.64
58698;BME280;44475;53.206;-6.106;2023-04-10T09:50:05;100257.34;;;23.14;39.27
58698;BME280;44475;53.206;-6.106;2023-04-10T09:52:33;100253.88;;;23.12;38.74
58698;BME280;44475;53.206;-6.106;2023-04-10T09:55:04;100252.44;;;23.08;39.00
58698;BME280;44475;53.206;-6.106;2023-04-10T09:57:32;100248.03;;;22.97;39.48
58698;BME280;44475;53.206;-6.106;2023-04-10T10:00:01;100244.53;;;23.15;39.00
58698;BME280;44475;53.206;-6.106;2023-04-10T10:02:35;100230.81;;;22.86;38.72
58698;BME280;44475;53.206;-6.106;2023-04-10T10:05:04;100242.13;;;23.02;38.58
58698;BME280;44475;53.206;-6.106;2023-04-10T10:07:31;100238.81;;;22.98;38.51
58698;BME280;44475;53.206;-6.106;2023-04-10T10:09:57;100240.44;;;22.80;39.41
58698;BME280;44475;53.206;-6.106;2023-04-10T10:12:32;100247.75;;;23.00;38.95
58698;BME280;44475;53.206;-6.106;2023-04-10T10:14:59;100250.50;;;22.80;39.21
58698;BME280;44475;53.206;-6.106;2023-04-10T10:17:31;100250.75;;;22.97;38.95
58698;BME280;44475;53.206;-6.106;2023-04-10T10:20:06;100254.22;;;22.99;39.03
58698;BME280;44475;53.206;-6.106;2023-04-10T10:22:34;100249.53;;;23.19;38.71
58698;BME280;44475;53.206;-6.106;2023-04-10T10:25:02;100246.19;;;23.26;38.46
58698;BME280;44475;53.206;-6.106;2023-04-10T10:27:36;100243.19;;;23.19;38.53
58698;BME280;44475;53.206;-6.106;2023-04-10T10:30:03;100249.16;;;23.04;38.73
58698;BME280;44475;53.206;-6.106;2023-04-10T10:32:32;100242.28;;;23.00;38.82
58698;BME280;44475;53.206;-6.106;2023-04-10T10:35:01;100233.03;;;23.11;38.72
58698;BME280;44475;53.206;-6.106;2023-04-10T10:37:29;100236.56;;;22.93;38.93
58698;BME280;44475;53.206;-6.106;2023-04-10T10:43:12;100240.50;;;23.09;38.46
58698;BME280;44475;53.206;-6.106;2023-04-10T10:45:40;100225.88;;;23.00;38.69
58698;BME280;44475;53.206;-6.106;2023-04-10T10:48:09;100219.25;;;23.03;38.90
58698;BME280;44475;53.206;-6.106;2023-04-10T10:50:53;100223.25;;;23.08;38.66
58698;BME280;44475;53.206;-6.106;2023-04-10T10:53:39;100224.59;;;23.04;38.65
58698;BME280;44475;53.206;-6.106;2023-04-10T10:58:47;100218.69;;;22.99;38.88
58698;BME280;44475;53.206;-6.106;2023-04-10T11:01:14;100221.03;;;22.94;38.59
58698;BME280;44475;53.206;-6.106;2023-04-10T11:03:41;100216.00;;;22.79;39.17
58698;BME280;44475;53.206;-6.106;2023-04-10T11:06:11;100225.63;;;22.73;38.99
58698;BME280;44475;53.206;-6.106;2023-04-10T11:08:48;100219.44;;;22.91;38.94
58698;BME280;44475;53.206;-6.106;2023-04-10T11:11:17;100215.38;;;22.95;38.91
58698;BME280;44475;53.206;-6.106;2023-04-10T11:19:05;100218.22;;;23.14;38.18
58698;BME280;44475;53.206;-6.106;2023-04-10T11:21:33;100220.22;;;23.12;38.27
58698;BME280;44475;53.206;-6.106;2023-04-10T11:24:03;100207.75;;;22.99;38.28
58698;BME280;44475;53.206;-6.106;2023-04-10T11:29:03;100203.78;;;22.93;38.60
58698;BME280;44475;53.206;-6.106;2023-04-10T11:31:33;100199.31;;;22.82;38.65
58698;BME280;44475;53.206;-6.106;2023-04-10T11:34:02;100206.34;;;22.95;38.30
58698;BME280;44475;53.206;-6.106;2023-04-10T11:36:29;100211.41;;;22.89;38.14
58698;BME280;44475;53.206;-6.106;2023-04-10T11:41:32;100199.00;;;22.95;38.05
58698;BME280;44475;53.206;-6.106;2023-04-10T11:44:00;100188.59;;;23.09;38.14
58698;BME280;44475;53.206;-6.106;2023-04-10T11:46:27;100192.47;;;23.06;38.27
58698;BME280;44475;53.206;-6.106;2023-04-10T11:48:59;100188.63;;;22.99;38.38
58698;BME280;44475;53.206;-6.106;2023-04-10T11:51:26;100197.03;;;23.16;37.70
58698;BME280;44475;53.206;-6.106;2023-04-10T11:54:10;100206.66;;;23.20;37.84
58698;BME280;44475;53.206;-6.106;2023-04-10T11:56:39;100218.97;;;22.96;38.30
58698;BME280;44475;53.206;-6.106;2023-04-10T11:59:06;100227.50;;;22.93;37.99
58698;BME280;44475;53.206;-6.106;2023-04-10T12:01:35;100229.81;;;22.87;38.46
58698;BME280;44475;53.206;-6.106;2023-04-10T12:04:02;100229.22;;;22.94;38.00
58698;BME280;44475;53.206;-6.106;2023-04-10T12:06:28;100224.00;;;23.01;38.15
58698;BME280;44475;53.206;-6.106;2023-04-10T12:08:55;100239.69;;;22.98;38.21
58698;BME280;44475;53.206;-6.106;2023-04-10T12:11:22;100281.81;;;22.96;38.41
58698;BME280;44475;53.206;-6.106;2023-04-10T12:13:53;100281.81;;;22.96;38.71
58698;BME280;44475;53.206;-6.106;2023-04-10T12:16:21;100285.81;;;23.12;38.18
58698;BME280;44475;53.206;-6.106;2023-04-10T12:18:48;100294.25;;;23.18;38.03
58698;BME280;44475;53.206;-6.106;2023-04-10T12:21:15;100295.69;;;23.23;37.85
58698;BME280;44475;53.206;-6.106;2023-04-10T12:23:42;100296.59;;;23.13;37.89
58698;BME280;44475;53.206;-6.106;2023-04-10T12:26:16;100294.59;;;23.05;38.10
58698;BME280;44475;53.206;-6.106;2023-04-10T12:29:03;100301.78;;;23.06;37.98
58698;BME280;44475;53.206;-6.106;2023-04-10T12:31:34;100289.44;;;23.02;38.19
58698;BME280;44475;53.206;-6.106;2023-04-10T12:34:02;100294.47;;;22.97;38.42
58698;BME280;44475;53.206;-6.106;2023-04-10T12:36:31;100288.00;;;22.98;38.17
58698;BME280;44475;53.206;-6.106;2023-04-10T12:39:00;100286.09;;;23.08;37.95
58698;BME280;44475;53.206;-6.106;2023-04-10T12:41:32;100278.00;;;23.17;37.83
58698;BME280;44475;53.206;-6.106;2023-04-10T12:44:10;100265.00;;;23.01;38.06
58698;BME280;44475;53.206;-6.106;2023-04-10T12:46:38;100263.66;;;23.15;37.45
58698;BME280;44475;53.206;-6.106;2023-04-10T12:49:17;100264.09;;;23.10;37.72
58698;BME280;44475;53.206;-6.106;2023-04-10T12:51:46;100265.34;;;23.16;37.41
58698;BME280;44475;53.206;-6.106;2023-04-10T12:54:33;100254.75;;;23.13;37.79
58698;BME280;44475;53.206;-6.106;2023-04-10T12:57:00;100257.97;;;23.26;37.07
58698;BME280;44475;53.206;-6.106;2023-04-10T12:59:28;100258.69;;;23.28;37.17
58698;BME280;44475;53.206;-6.106;2023-04-10T13:01:54;100255.56;;;23.23;37.27
58698;BME280;44475;53.206;-6.106;2023-04-10T13:04:21;100249.63;;;23.28;37.02
58698;BME280;44475;53.206;-6.106;2023-04-10T13:06:48;100240.41;;;23.29;37.07
58698;BME280;44475;53.206;-6.106;2023-04-10T13:09:17;100249.38;;;23.21;37.21
58698;BME280;44475;53.206;-6.106;2023-04-10T13:11:44;100241.78;;;23.15;37.21
58698;BME280;44475;53.206;-6.106;2023-04-10T13:14:10;100244.59;;;23.33;37.09
58698;BME280;44475;53.206;-6.106;2023-04-10T13:16:36;100247.75;;;23.28;37.14
58698;BME280;44475;53.206;-6.106;2023-04-10T13:19:03;100260.72;;;23.26;37.31
58698;BME280;44475;53.206;-6.106;2023-04-10T13:21:29;100241.19;;;23.21;37.40
58698;BME280;44475;53.206;-6.106;2023-04-10T13:23:56;100247.03;;;23.26;37.09
58698;BME280;44475;53.206;-6.106;2023-04-10T13:26:23;100242.84;;;23.32;36.78
58698;BME280;44475;53.206;-6.106;2023-04-10T13:28:49;100249.38;;;23.21;36.90
58698;BME280;44475;53.206;-6.106;2023-04-10T13:31:15;100260.03;;;23.24;36.71
58698;BME280;44475;53.206;-6.106;2023-04-10T13:33:46;100240.56;;;23.27;36.70
58698;BME280;44475;53.206;-6.106;2023-04-10T13:36:13;100244.22;;;23.18;36.84
58698;BME280;44475;53.206;-6.106;2023-04-10T13:38:40;100247.50;;;23.22;36.56